Time;durP1;ratioP1;P1;durP2;ratioP2;P2;SDS_P1;SDS_P2;PMS_P1;PMS_P2;Temp;Humidity;BMP_temperature;BMP_pressure;BME280_temperature;BME280_humidity;BME280_pressure;Samples;Min_cycle;Max_cycle;Signal;HPM_P1;HPM_P2
2022/01/09 00:01:45;;;;;;;;;;;;;;;5.4;94.44043;98942.16;;;;-89
2022/01/09 00:05:44;;;;;;;12.4;2;;;;;;;;;;;;;-88
2022/01/09 00:06:42;;;;;;;;;;;;;;;5.37;94.42383;98953.48;;;;-88
2022/01/09 00:11:45;;;;;;;;;;;;;;;5.35;94.47168;98956.34;;;;-88
2022/01/09 00:16:48;;;;;;;;;;;;;;;5.33;94.45703;98954.69;;;;-88
2022/01/09 00:21:52;;;;;;;;;;;;;;;5.31;94.5293;98977.7;;;;-89
2022/01/09 00:26:43;;;;;;;;;;;;;;;5.29;94.39258;98977.78;;;;-84
2022/01/09 00:31:42;;;;;;;;;;;;;;;5.27;94.29102;98983.36;;;;-83
2022/01/09 00:35:42;;;;;;;14.4;2.6;;;;;;;;;;;;;-85
2022/01/09 00:36:42;;;;;;;;;;;;;;;5.28;94.34961;98991.59;;;;-84
2022/01/09 00:41:42;;;;;;;;;;;;;;;5.29;94.28418;98993.98;;;;-83
2022/01/09 00:46:42;;;;;;;;;;;;;;;5.28;94.27148;99001.84;;;;-82
2022/01/09 00:51:44;;;;;;;;;;;;;;;5.29;94.48242;99015.34;;;;-83
2022/01/09 00:56:42;;;;;;;;;;;;;;;5.27;94.3584;99025.93;;;;-83
2022/01/09 01:01:43;;;;;;;;;;;;;;;5.28;94.4668;99038.16;;;;-84
2022/01/09 01:05:43;;;;;;;19;2.3;;;;;;;;;;;;;-83
2022/01/09 01:06:43;;;;;;;;;;;;;;;5.28;94.39063;99051.64;;;;-85
2022/01/09 01:11:43;;;;;;;;;;;;;;;5.28;94.41309;99060.58;;;;-87
2022/01/09 01:16:53;;;;;;;;;;;;;;;5.26;94.39746;99070.08;;;;-87
2022/01/09 01:21:43;;;;;;;;;;;;;;;5.24;94.39355;99081.05;;;;-87
2022/01/09 01:26:42;;;;;;;;;;;;;;;5.22;94.36816;99097.02;;;;-87
2022/01/09 01:31:42;;;;;;;;;;;;;;;5.2;94.29883;99105.34;;;;-87
2022/01/09 01:35:42;;;;;;;14.6;2.2;;;;;;;;;;;;;-87
2022/01/09 01:36:42;;;;;;;;;;;;;;;5.18;94.37109;99115.36;;;;-87
2022/01/09 01:41:42;;;;;;;;;;;;;;;5.17;94.31445;99127.11;;;;-87
2022/01/09 01:46:43;;;;;;;;;;;;;;;5.16;94.28027;99135.48;;;;-86
2022/01/09 01:51:44;;;;;;;;;;;;;;;5.14;94.28711;99150.05;;;;-86
2022/01/09 01:56:47;;;;;;;;;;;;;;;5.11;94.29883;99156.94;;;;-87
2022/01/09 02:01:42;;;;;;;;;;;;;;;5.07;94.25977;99174.02;;;;-86
2022/01/09 02:05:49;;;;;;;20.4;2.3;;;;;;;;;;;;;-86
2022/01/09 02:06:42;;;;;;;;;;;;;;;5.05;94.28711;99186.33;;;;-87
2022/01/09 02:11:42;;;;;;;;;;;;;;;5.03;94.31543;99187.77;;;;-86
2022/01/09 02:16:43;;;;;;;;;;;;;;;5.01;94.25684;99192.84;;;;-86
2022/01/09 02:21:44;;;;;;;;;;;;;;;5;94.30957;99197.66;;;;-86
2022/01/09 02:26:43;;;;;;;;;;;;;;;4.98;94.28223;99201.13;;;;-86
2022/01/09 02:31:47;;;;;;;;;;;;;;;4.96;94.26953;99210.81;;;;-87
2022/01/09 02:35:46;;;;;;;15.8;2.6;;;;;;;;;;;;;-86
2022/01/09 02:36:42;;;;;;;;;;;;;;;4.95;94.2002;99225.14;;;;-87
2022/01/09 02:41:42;;;;;;;;;;;;;;;4.9;94.08105;99236.17;;;;-87
2022/01/09 02:46:56;;;;;;;;;;;;;;;4.86;94.03906;99246.08;;;;-86
2022/01/09 02:51:45;;;;;;;;;;;;;;;4.83;94.07617;99258.73;;;;-86
2022/01/09 02:56:42;;;;;;;;;;;;;;;4.81;94.10449;99273.42;;;;-86
2022/01/09 03:01:43;;;;;;;;;;;;;;;4.8;94.08105;99276.27;;;;-86
2022/01/09 03:05:43;;;;;;;13.4;1.8;;;;;;;;;;;;;-85
2022/01/09 03:06:42;;;;;;;;;;;;;;;4.78;94.06641;99293.27;;;;-87
2022/01/09 03:11:45;;;;;;;;;;;;;;;4.76;94.01855;99311.09;;;;-85
2022/01/09 03:16:46;;;;;;;;;;;;;;;4.74;93.95898;99311.84;;;;-85
2022/01/09 03:21:42;;;;;;;;;;;;;;;4.7;93.82031;99322.33;;;;-86
2022/01/09 03:26:44;;;;;;;;;;;;;;;4.65;93.71289;99331.15;;;;-86
2022/01/09 03:31:42;;;;;;;;;;;;;;;4.6;93.72266;99335.84;;;;-85
2022/01/09 03:35:44;;;;;;;13.2;1.6;;;;;;;;;;;;;-86
2022/01/09 03:36:42;;;;;;;;;;;;;;;4.55;93.72363;99340.91;;;;-85
2022/01/09 03:41:44;;;;;;;;;;;;;;;4.52;93.68457;99364.47;;;;-84
2022/01/09 03:46:43;;;;;;;;;;;;;;;4.49;93.60156;99368.87;;;;-85
2022/01/09 03:51:44;;;;;;;;;;;;;;;4.45;93.56055;99379.84;;;;-85
2022/01/09 03:56:46;;;;;;;;;;;;;;;4.42;93.65039;99379.86;;;;-86
2022/01/09 04:01:45;;;;;;;;;;;;;;;4.41;93.65918;99387.53;;;;-85
2022/01/09 04:05:41;;;;;;;16.2;1.7;;;;;;;;;;;;;-85
2022/01/09 04:06:46;;;;;;;;;;;;;;;4.41;93.61621;99397.93;;;;-85
2022/01/09 04:11:42;;;;;;;;;;;;;;;4.4;93.63574;99403.19;;;;-85
2022/01/09 04:16:44;;;;;;;;;;;;;;;4.39;93.62305;99403.38;;;;-85
2022/01/09 04:21:43;;;;;;;;;;;;;;;4.37;93.54102;99412.88;;;;-85
2022/01/09 04:26:42;;;;;;;;;;;;;;;4.33;93.62012;99432.44;;;;-83
2022/01/09 04:31:43;;;;;;;;;;;;;;;4.29;93.48145;99433.14;;;;-84
2022/01/09 04:35:40;;;;;;;11.8;1.7;;;;;;;;;;;;;-84
2022/01/09 04:36:42;;;;;;;;;;;;;;;4.24;93.40625;99435.99;;;;-85
2022/01/09 04:41:46;;;;;;;;;;;;;;;4.19;93.30762;99448.02;;;;-85
2022/01/09 04:46:49;;;;;;;;;;;;;;;4.16;93.37598;99456.47;;;;-86
2022/01/09 04:51:43;;;;;;;;;;;;;;;4.14;93.39355;99466.91;;;;-84
2022/01/09 04:56:42;;;;;;;;;;;;;;;4.12;93.47656;99473.33;;;;-85
2022/01/09 05:01:47;;;;;;;;;;;;;;;4.1;93.52734;99487.06;;;;-85
2022/01/09 05:05:39;;;;;;;7;1.4;;;;;;;;;;;;;-85
2022/01/09 05:06:41;;;;;;;;;;;;;;;4.07;93.47754;99500.57;;;;-85
2022/01/09 05:11:41;;;;;;;;;;;;;;;4.03;93.4248;99513.84;;;;-84
2022/01/09 05:16:45;;;;;;;;;;;;;;;4;93.50586;99521.72;;;;-85
2022/01/09 05:21:43;;;;;;;;;;;;;;;3.97;93.64063;99515.43;;;;-87
2022/01/09 05:26:42;;;;;;;;;;;;;;;3.93;93.69629;99522.38;;;;-85
2022/01/09 05:31:43;;;;;;;;;;;;;;;3.87;93.57324;99535.95;;;;-86
2022/01/09 05:35:40;;;;;;;7.1;1.4;;;;;;;;;;;;;-85
2022/01/09 05:36:42;;;;;;;;;;;;;;;3.81;93.45313;99550.61;;;;-85
2022/01/09 05:41:46;;;;;;;;;;;;;;;3.79;93.53613;99558.85;;;;-85
2022/01/09 05:46:43;;;;;;;;;;;;;;;3.77;93.32422;99569.86;;;;-85
2022/01/09 05:51:42;;;;;;;;;;;;;;;3.76;93.57324;99572.11;;;;-84
2022/01/09 05:56:42;;;;;;;;;;;;;;;3.75;93.48438;99575.33;;;;-84
2022/01/09 06:01:43;;;;;;;;;;;;;;;3.74;93.5459;99581.13;;;;-85
2022/01/09 06:05:42;;;;;;;9.8;1.6;;;;;;;;;;;;;-84
2022/01/09 06:06:42;;;;;;;;;;;;;;;3.7;93.37695;99588.73;;;;-85
2022/01/09 06:11:44;;;;;;;;;;;;;;;3.68;93.30664;99595.02;;;;-84
2022/01/09 06:16:43;;;;;;;;;;;;;;;3.67;93.40234;99602.41;;;;-85
2022/01/09 06:21:42;;;;;;;;;;;;;;;3.68;93.53418;99610.52;;;;-85
2022/01/09 06:26:42;;;;;;;;;;;;;;;3.68;93.64258;99623.94;;;;-85
2022/01/09 06:31:42;;;;;;;;;;;;;;;3.67;93.56445;99630.09;;;;-86
2022/01/09 06:35:37;;;;;;;8;1.6;;;;;;;;;;;;;-84
2022/01/09 06:36:42;;;;;;;;;;;;;;;3.62;93.30371;99647.25;;;;-86
2022/01/09 06:41:43;;;;;;;;;;;;;;;3.56;93.08594;99663.86;;;;-84
2022/01/09 06:46:42;;;;;;;;;;;;;;;3.53;93.04688;99682.03;;;;-85
2022/01/09 06:51:42;;;;;;;;;;;;;;;3.53;93.28613;99686.83;;;;-87
2022/01/09 06:56:42;;;;;;;;;;;;;;;3.53;93.5459;99685.2;;;;-85
2022/01/09 07:01:41;;;;;;;;;;;;;;;3.52;93.42285;99696.31;;;;-86
2022/01/09 07:05:37;;;;;;;6.9;1.2;;;;;;;;;;;;;-87
2022/01/09 07:06:44;;;;;;;;;;;;;;;3.49;93.38379;99698.56;;;;-86
2022/01/09 07:11:42;;;;;;;;;;;;;;;3.47;93.41309;99705.66;;;;-85
2022/01/09 07:16:42;;;;;;;;;;;;;;;3.49;93.5127;99716.64;;;;-86
2022/01/09 07:21:44;;;;;;;;;;;;;;;3.51;93.55078;99734.13;;;;-87
2022/01/09 07:26:42;;;;;;;;;;;;;;;3.52;93.5957;99745.59;;;;-83
2022/01/09 07:31:41;;;;;;;;;;;;;;;3.5;93.55078;99743.55;;;;-83
2022/01/09 07:35:39;;;;;;;3.8;1.3;;;;;;;;;;;;;-82
2022/01/09 07:36:42;;;;;;;;;;;;;;;3.5;93.64844;99755.14;;;;-81
2022/01/09 07:41:41;;;;;;;;;;;;;;;3.49;93.7002;99753.33;;;;-82
2022/01/09 07:46:41;;;;;;;;;;;;;;;3.49;93.5791;99761.45;;;;-88
2022/01/09 07:51:47;;;;;;;;;;;;;;;3.48;93.55566;99771.45;;;;-86
2022/01/09 07:56:43;;;;;;;;;;;;;;;3.49;93.7207;99775.59;;;;-88
2022/01/09 08:01:42;;;;;;;;;;;;;;;3.5;93.64844;99784.45;;;;-87
2022/01/09 08:05:41;;;;;;;6.6;1.6;;;;;;;;;;;;;-86
2022/01/09 08:06:41;;;;;;;;;;;;;;;3.52;93.57422;99807.5;;;;-87
2022/01/09 08:11:42;;;;;;;;;;;;;;;3.53;93.53516;99803.09;;;;-87
2022/01/09 08:16:44;;;;;;;;;;;;;;;3.52;93.50098;99808.46;;;;-88
2022/01/09 08:21:42;;;;;;;;;;;;;;;3.52;93.51172;99811.63;;;;-86
2022/01/09 08:26:41;;;;;;;;;;;;;;;3.5;93.50781;99813.39;;;;-87
2022/01/09 08:31:43;;;;;;;;;;;;;;;3.5;93.57031;99826.63;;;;-87
2022/01/09 08:35:41;;;;;;;4.8;1.5;;;;;;;;;;;;;-89
2022/01/09 08:36:45;;;;;;;;;;;;;;;3.5;93.4834;99825.23;;;;-87
2022/01/09 08:41:44;;;;;;;;;;;;;;;3.48;93.37109;99828.63;;;;-88
2022/01/09 08:46:42;;;;;;;;;;;;;;;3.45;93.33301;99838.97;;;;-87
2022/01/09 08:51:43;;;;;;;;;;;;;;;3.42;93.32715;99852.77;;;;-85
2022/01/09 08:56:48;;;;;;;;;;;;;;;3.4;93.33203;99863.33;;;;-86
2022/01/09 09:01:43;;;;;;;;;;;;;;;3.39;93.34082;99864.63;;;;-87
2022/01/09 09:05:35;;;;;;;8.5;1.6;;;;;;;;;;;;;-86
2022/01/09 09:06:51;;;;;;;;;;;;;;;3.4;93.4082;99865.39;;;;-86
2022/01/09 09:11:42;;;;;;;;;;;;;;;3.43;93.58887;99874.12;;;;-86
2022/01/09 09:16:42;;;;;;;;;;;;;;;3.5;93.64648;99877.71;;;;-86
2022/01/09 09:21:46;;;;;;;;;;;;;;;3.59;93.6875;99888.32;;;;-86
2022/01/09 09:26:48;;;;;;;;;;;;;;;3.68;93.71875;99892.95;;;;-86
2022/01/09 09:31:47;;;;;;;;;;;;;;;3.78;93.75098;99899.83;;;;-86
2022/01/09 09:35:36;;;;;;;5.3;1.5;;;;;;;;;;;;;-86
2022/01/09 09:36:42;;;;;;;;;;;;;;;3.9;93.83301;99907.73;;;;-87
2022/01/09 09:41:44;;;;;;;;;;;;;;;4.01;93.66992;99920.13;;;;-88
2022/01/09 09:46:43;;;;;;;;;;;;;;;4.09;93.58984;99921.52;;;;-87
2022/01/09 09:51:46;;;;;;;;;;;;;;;4.18;93.58789;99933.27;;;;-87
2022/01/09 09:56:44;;;;;;;;;;;;;;;4.26;93.50586;99947.31;;;;-87
2022/01/09 10:01:44;;;;;;;;;;;;;;;4.34;93.67773;99953.76;;;;-87
2022/01/09 10:05:42;;;;;;;7.6;1.8;;;;;;;;;;;;;-86
2022/01/09 10:06:43;;;;;;;;;;;;;;;4.37;93.54297;99950.59;;;;-87
2022/01/09 10:12:00;;;;;;;;;;;;;;;4.4;93.375;99963.98;;;;-86
2022/01/09 10:16:57;;;;;;;;;;;;;;;4.43;93.2832;99962.33;;;;-86
2022/01/09 10:21:48;;;;;;;;;;;;;;;4.46;93.26758;99973.74;;;;-87
2022/01/09 10:26:45;;;;;;;;;;;;;;;4.48;93.24023;99997.77;;;;-88
2022/01/09 10:31:50;;;;;;;;;;;;;;;4.42;93.35938;99990.17;;;;-86
2022/01/09 10:35:35;;;;;;;6.9;1.4;;;;;;;;;;;;;-87
2022/01/09 10:36:44;;;;;;;;;;;;;;;4.37;93.29102;99998;;;;-87
2022/01/09 10:42:00;;;;;;;;;;;;;;;4.32;93.2373;99995.81;;;;-88
2022/01/09 10:46:44;;;;;;;;;;;;;;;4.28;93.22949;99999.62;;;;-85
2022/01/09 10:51:51;;;;;;;;;;;;;;;4.27;93.37988;100010.3;;;;-85
2022/01/09 10:56:51;;;;;;;;;;;;;;;4.26;93.25879;100004.9;;;;-88
2022/01/09 11:01:44;;;;;;;;;;;;;;;4.26;93.21289;100016.9;;;;-88
2022/01/09 11:05:35;;;;;;;6.5;1.4;;;;;;;;;;;;;-88
2022/01/09 11:06:44;;;;;;;;;;;;;;;4.28;93.22949;100016.8;;;;-88
2022/01/09 11:11:51;;;;;;;;;;;;;;;4.33;93.31738;100029.9;;;;-86
2022/01/09 11:16:51;;;;;;;;;;;;;;;4.4;93.34277;100039.5;;;;-85
2022/01/09 11:21:44;;;;;;;;;;;;;;;4.44;93.32813;100042.9;;;;-88
2022/01/09 11:26:48;;;;;;;;;;;;;;;4.49;93.29688;100051;;;;-86
2022/01/09 11:31:46;;;;;;;;;;;;;;;4.57;93.25977;100049.2;;;;-87
2022/01/09 11:35:42;;;;;;;7.4;1.7;;;;;;;;;;;;;-85
2022/01/09 11:36:46;;;;;;;;;;;;;;;4.69;93.35059;100057.8;;;;-86
2022/01/09 11:42:03;;;;;;;;;;;;;;;4.76;93.21289;100060.7;;;;-86
2022/01/09 11:46:55;;;;;;;;;;;;;;;4.79;93.13477;100063.1;;;;-88
2022/01/09 11:51:53;;;;;;;;;;;;;;;4.79;92.94824;100077.1;;;;-87
2022/01/09 11:56:51;;;;;;;;;;;;;;;4.82;92.93262;100080.3;;;;-90
2022/01/09 12:01:44;;;;;;;;;;;;;;;4.91;92.94141;100086.1;;;;-87
2022/01/09 12:05:32;;;;;;;10.3;1.8;;;;;;;;;;;;;-89
2022/01/09 12:06:46;;;;;;;;;;;;;;;5.04;92.91406;100091.7;;;;-88
2022/01/09 12:11:53;;;;;;;;;;;;;;;5.16;92.74512;100100.5;;;;-89
2022/01/09 12:16:54;;;;;;;;;;;;;;;5.28;92.62695;100108.4;;;;-87
2022/01/09 12:21:59;;;;;;;;;;;;;;;5.3;92.36133;100116.3;;;;-88
2022/01/09 12:26:51;;;;;;;;;;;;;;;5.27;92.21387;100111.9;;;;-86
2022/01/09 12:31:48;;;;;;;;;;;;;;;5.23;92.12793;100114.7;;;;-88
2022/01/09 12:35:33;;;;;;;12.4;2;;;;;;;;;;;;;-87
2022/01/09 12:36:43;;;;;;;;;;;;;;;5.17;92.31152;100114.6;;;;-86
2022/01/09 12:41:43;;;;;;;;;;;;;;;5.15;92.06836;100115.8;;;;-87
2022/01/09 12:46:46;;;;;;;;;;;;;;;5.12;92.07422;100127.2;;;;-88
2022/01/09 12:51:47;;;;;;;;;;;;;;;5.06;92.02539;100127.4;;;;-88
2022/01/09 12:56:47;;;;;;;;;;;;;;;5.01;91.80859;100136.2;;;;-88
2022/01/09 13:01:44;;;;;;;;;;;;;;;5.02;91.73438;100144.8;;;;-89
2022/01/09 13:05:31;;;;;;;10;1.8;;;;;;;;;;;;;-87
2022/01/09 13:06:43;;;;;;;;;;;;;;;5.08;91.42188;100154.9;;;;-88
2022/01/09 13:11:42;;;;;;;;;;;;;;;5.05;91.27246;100155.2;;;;-89
2022/01/09 13:16:42;;;;;;;;;;;;;;;4.97;91.33301;100170;;;;-89
2022/01/09 13:21:45;;;;;;;;;;;;;;;4.87;91.48438;100179.1;;;;-86
2022/01/09 13:26:49;;;;;;;;;;;;;;;4.79;91.68652;100185.2;;;;-88
2022/01/09 13:31:49;;;;;;;;;;;;;;;4.76;91.87695;100188.2;;;;-89
2022/01/09 13:35:32;;;;;;;8.6;1.6;;;;;;;;;;;;;-89
2022/01/09 13:36:43;;;;;;;;;;;;;;;4.81;91.99512;100196.2;;;;-89
2022/01/09 13:41:49;;;;;;;;;;;;;;;4.92;91.95313;100200.6;;;;-87
2022/01/09 13:46:42;;;;;;;;;;;;;;;5.05;91.95801;100203.9;;;;-86
2022/01/09 13:51:48;;;;;;;;;;;;;;;5.14;91.83789;100208.2;;;;-88
2022/01/09 13:56:47;;;;;;;;;;;;;;;5.19;91.77148;100217.4;;;;-87
2022/01/09 14:01:49;;;;;;;;;;;;;;;5.19;91.6084;100231.9;;;;-87
2022/01/09 14:05:34;;;;;;;10.1;1.7;;;;;;;;;;;;;-85
2022/01/09 14:06:42;;;;;;;;;;;;;;;5.17;91.46289;100232.7;;;;-87
2022/01/09 14:11:43;;;;;;;;;;;;;;;5.15;91.5459;100240.5;;;;-87
2022/01/09 14:16:42;;;;;;;;;;;;;;;5.14;91.5332;100245.7;;;;-87
2022/01/09 14:21:54;;;;;;;;;;;;;;;5.1;91.61035;100254.8;;;;-85
2022/01/09 14:26:41;;;;;;;;;;;;;;;5.04;91.55371;100254.1;;;;-88
2022/01/09 14:31:44;;;;;;;;;;;;;;;4.96;91.70996;100265.6;;;;-88
2022/01/09 14:35:36;;;;;;;7.8;1.7;;;;;;;;;;;;;-83
2022/01/09 14:36:44;;;;;;;;;;;;;;;4.91;91.82031;100265.9;;;;-86
2022/01/09 14:41:42;;;;;;;;;;;;;;;4.88;91.74902;100272.2;;;;-87
2022/01/09 14:46:41;;;;;;;;;;;;;;;4.92;91.91113;100276.4;;;;-87
2022/01/09 14:51:42;;;;;;;;;;;;;;;4.94;91.8916;100287.6;;;;-83
2022/01/09 14:56:41;;;;;;;;;;;;;;;4.94;91.89355;100291.7;;;;-83
2022/01/09 15:01:43;;;;;;;;;;;;;;;4.95;91.89551;100308;;;;-83
2022/01/09 15:05:29;;;;;;;10.4;2.1;;;;;;;;;;;;;-83
2022/01/09 15:06:41;;;;;;;;;;;;;;;4.93;91.79199;100319.8;;;;-83
2022/01/09 15:11:44;;;;;;;;;;;;;;;4.86;91.7002;100324.7;;;;-86
2022/01/09 15:16:49;;;;;;;;;;;;;;;4.78;91.77148;100332.5;;;;-87
2022/01/09 15:21:48;;;;;;;;;;;;;;;4.69;91.89355;100340.3;;;;-88
2022/01/09 15:26:42;;;;;;;;;;;;;;;4.59;92.04688;100343.8;;;;-86
2022/01/09 15:31:42;;;;;;;;;;;;;;;4.52;92.04199;100343;;;;-85
2022/01/09 15:35:30;;;;;;;6.9;1.7;;;;;;;;;;;;;-86
2022/01/09 15:36:43;;;;;;;;;;;;;;;4.44;91.97168;100351.6;;;;-84
2022/01/09 15:41:43;;;;;;;;;;;;;;;4.35;91.97461;100358.2;;;;-86
2022/01/09 15:46:43;;;;;;;;;;;;;;;4.27;91.95508;100361.1;;;;-86
2022/01/09 15:51:42;;;;;;;;;;;;;;;4.18;91.96973;100369.2;;;;-87
2022/01/09 15:56:43;;;;;;;;;;;;;;;4.11;92.00879;100377.2;;;;-87
2022/01/09 16:01:44;;;;;;;;;;;;;;;4.03;92.05664;100386.3;;;;-85
2022/01/09 16:05:28;;;;;;;7.9;1.9;;;;;;;;;;;;;-83
2022/01/09 16:06:41;;;;;;;;;;;;;;;3.95;92.0957;100401.9;;;;-84
2022/01/09 16:11:42;;;;;;;;;;;;;;;3.86;92.15234;100411.7;;;;-82
2022/01/09 16:16:41;;;;;;;;;;;;;;;3.8;92.22559;100412.1;;;;-84
2022/01/09 16:21:41;;;;;;;;;;;;;;;3.72;92.25293;100418.7;;;;-84
2022/01/09 16:26:42;;;;;;;;;;;;;;;3.64;92.29883;100422;;;;-83
2022/01/09 16:31:41;;;;;;;;;;;;;;;3.56;92.38965;100436;;;;-85
2022/01/09 16:35:29;;;;;;;7;1.6;;;;;;;;;;;;;-85
2022/01/09 16:36:43;;;;;;;;;;;;;;;3.48;92.42773;100440;;;;-87
2022/01/09 16:41:42;;;;;;;;;;;;;;;3.4;92.50781;100445.9;;;;-85
2022/01/09 16:46:42;;;;;;;;;;;;;;;3.34;92.58105;100452.9;;;;-86
2022/01/09 16:51:43;;;;;;;;;;;;;;;3.25;92.61816;100455.7;;;;-86
2022/01/09 16:56:42;;;;;;;;;;;;;;;3.17;92.68652;100459.7;;;;-85
2022/01/09 17:01:43;;;;;;;;;;;;;;;3.07;92.78613;100467.5;;;;-85
2022/01/09 17:05:28;;;;;;;9.5;1.5;;;;;;;;;;;;;-87
2022/01/09 17:06:41;;;;;;;;;;;;;;;3;92.83398;100476;;;;-85
2022/01/09 17:11:41;;;;;;;;;;;;;;;2.91;92.87891;100490.4;;;;-84
2022/01/09 17:16:44;;;;;;;;;;;;;;;2.84;92.92871;100494;;;;-86
2022/01/09 17:21:41;;;;;;;;;;;;;;;2.77;92.93652;100500.8;;;;-86
2022/01/09 17:26:43;;;;;;;;;;;;;;;2.71;92.95508;100500;;;;-85
2022/01/09 17:31:47;;;;;;;;;;;;;;;2.64;92.97168;100511;;;;-86
2022/01/09 17:35:27;;;;;;;7.2;1.6;;;;;;;;;;;;;-85
2022/01/09 17:36:41;;;;;;;;;;;;;;;2.56;92.99902;100520.2;;;;-85
2022/01/09 17:41:42;;;;;;;;;;;;;;;2.5;93.07227;100525.5;;;;-85
2022/01/09 17:46:43;;;;;;;;;;;;;;;2.45;93.11621;100534.8;;;;-85
2022/01/09 17:51:41;;;;;;;;;;;;;;;2.41;93.12793;100538.5;;;;-85
2022/01/09 17:56:44;;;;;;;;;;;;;;;2.34;93.07129;100551.1;;;;-84
2022/01/09 18:01:42;;;;;;;;;;;;;;;2.27;93.07715;100561.8;;;;-82
2022/01/09 18:05:26;;;;;;;7.2;2.1;;;;;;;;;;;;;-84
2022/01/09 18:06:42;;;;;;;;;;;;;;;2.24;93.14453;100576.5;;;;-84
2022/01/09 18:11:44;;;;;;;;;;;;;;;2.19;93.12402;100583.5;;;;-85
2022/01/09 18:16:42;;;;;;;;;;;;;;;2.17;93.15234;100588.1;;;;-83
2022/01/09 18:21:42;;;;;;;;;;;;;;;2.18;93.19824;100593.9;;;;-84
2022/01/09 18:26:44;;;;;;;;;;;;;;;2.15;93.18262;100596.6;;;;-84
2022/01/09 18:31:43;;;;;;;;;;;;;;;2.1;93.19238;100604.8;;;;-85
2022/01/09 18:35:26;;;;;;;9.8;2;;;;;;;;;;;;;-84
2022/01/09 18:36:42;;;;;;;;;;;;;;;2.07;93.2168;100615.8;;;;-84
2022/01/09 18:41:41;;;;;;;;;;;;;;;1.98;93.20996;100626.8;;;;-83
2022/01/09 18:46:41;;;;;;;;;;;;;;;1.92;93.2373;100639.6;;;;-85
2022/01/09 18:51:41;;;;;;;;;;;;;;;1.85;93.24512;100653.2;;;;-83
2022/01/09 18:56:43;;;;;;;;;;;;;;;1.81;93.31348;100667;;;;-85
2022/01/09 19:01:42;;;;;;;;;;;;;;;1.77;93.29199;100675.1;;;;-83
2022/01/09 19:05:25;;;;;;;6.3;1.8;;;;;;;;;;;;;-83
2022/01/09 19:06:43;;;;;;;;;;;;;;;1.75;93.38574;100686.4;;;;-85
2022/01/09 19:11:46;;;;;;;;;;;;;;;1.73;93.43555;100694;;;;-83
2022/01/09 19:16:44;;;;;;;;;;;;;;;1.7;93.50488;100705.2;;;;-86
2022/01/09 19:21:43;;;;;;;;;;;;;;;1.66;93.43066;100718.8;;;;-83
2022/01/09 19:26:41;;;;;;;;;;;;;;;1.62;93.43359;100718.5;;;;-85
2022/01/09 19:31:43;;;;;;;;;;;;;;;1.57;93.43262;100727.5;;;;-84
2022/01/09 19:35:29;;;;;;;6.4;1.9;;;;;;;;;;;;;-82
2022/01/09 19:36:43;;;;;;;;;;;;;;;1.53;93.41602;100728.2;;;;-85
2022/01/09 19:41:42;;;;;;;;;;;;;;;1.5;93.4707;100732.4;;;;-81
2022/01/09 19:46:42;;;;;;;;;;;;;;;1.46;93.41992;100743.1;;;;-83
2022/01/09 19:51:42;;;;;;;;;;;;;;;1.44;93.46973;100754.3;;;;-83
2022/01/09 20:04:48;;;;;;;;;;;;;;;1.34;93.43652;100759.9;;;;-86
2022/01/09 20:05:24;;;;;;;6;2.1;;;;;;;;;;;;;-83
2022/01/09 20:09:53;;;;;;;;;;;;;;;1.28;93.38184;100770.5;;;;-86
2022/01/09 20:14:48;;;;;;;;;;;;;;;1.24;93.31836;100768.4;;;;-85
2022/01/09 20:19:48;;;;;;;;;;;;;;;1.2;93.39648;100774.7;;;;-84
2022/01/09 20:24:48;;;;;;;;;;;;;;;1.17;93.36719;100785.6;;;;-84
2022/01/09 20:29:49;;;;;;;;;;;;;;;1.12;93.37695;100790.9;;;;-85
2022/01/09 20:34:49;;;;;;;;;;;;;;;1.07;93.29102;100805.3;;;;-83
2022/01/09 20:35:22;;;;;;;6.5;2.1;;;;;;;;;;;;;-84
2022/01/09 20:39:48;;;;;;;;;;;;;;;1.05;93.34277;100815.6;;;;-85
2022/01/09 20:44:50;;;;;;;;;;;;;;;1.01;93.30957;100819.7;;;;-84
2022/01/09 20:49:48;;;;;;;;;;;;;;;0.97;93.3125;100821.5;;;;-82
2022/01/09 20:54:48;;;;;;;;;;;;;;;0.93;93.29395;100832.8;;;;-82
2022/01/09 20:59:47;;;;;;;;;;;;;;;0.91;93.32227;100838.8;;;;-82
2022/01/09 21:04:49;;;;;;;;;;;;;;;0.88;93.3252;100843.6;;;;-81
2022/01/09 21:05:22;;;;;;;6.3;1.9;;;;;;;;;;;;;-82
2022/01/09 21:09:49;;;;;;;;;;;;;;;0.86;93.32324;100855.8;;;;-83
2022/01/09 21:14:48;;;;;;;;;;;;;;;0.8;93.24414;100868.1;;;;-81
2022/01/09 21:19:48;;;;;;;;;;;;;;;0.77;93.22559;100873.6;;;;-80
2022/01/09 21:24:48;;;;;;;;;;;;;;;0.76;93.25586;100881;;;;-82
2022/01/09 21:29:48;;;;;;;;;;;;;;;0.74;93.20898;100891.3;;;;-82
2022/01/09 21:34:48;;;;;;;;;;;;;;;0.7;93.22266;100894.7;;;;-84
2022/01/09 21:35:20;;;;;;;7.6;2.4;;;;;;;;;;;;;-84
2022/01/09 21:39:48;;;;;;;;;;;;;;;0.68;93.24023;100900.8;;;;-84
2022/01/09 21:44:48;;;;;;;;;;;;;;;0.64;93.1875;100916.4;;;;-84
2022/01/09 21:49:49;;;;;;;;;;;;;;;0.62;93.1709;100924.4;;;;-85
2022/01/09 21:54:47;;;;;;;;;;;;;;;0.58;93.15234;100935.9;;;;-85
2022/01/09 21:59:50;;;;;;;;;;;;;;;0.53;93.10938;100946.5;;;;-85
2022/01/09 22:04:49;;;;;;;;;;;;;;;0.49;93.09082;100949.9;;;;-85
2022/01/09 22:05:19;;;;;;;6.2;2.3;;;;;;;;;;;;;-83
2022/01/09 22:09:50;;;;;;;;;;;;;;;0.45;93.0918;100957.7;;;;-84
2022/01/09 22:14:48;;;;;;;;;;;;;;;0.42;93.12891;100964.3;;;;-84
2022/01/09 22:19:48;;;;;;;;;;;;;;;0.38;93.07813;100968;;;;-84
2022/01/09 22:24:53;;;;;;;;;;;;;;;0.36;93.0957;100980.2;;;;-85
2022/01/09 22:29:49;;;;;;;;;;;;;;;0.34;93.05762;100987.9;;;;-83
2022/01/09 22:34:54;;;;;;;;;;;;;;;0.32;93.01074;100991.2;;;;-86
2022/01/09 22:35:19;;;;;;;7;2.4;;;;;;;;;;;;;-83
2022/01/09 22:39:47;;;;;;;;;;;;;;;0.29;93.00488;100998.7;;;;-82
2022/01/09 22:44:51;;;;;;;;;;;;;;;0.26;92.9873;101007.8;;;;-81
2022/01/09 22:49:47;;;;;;;;;;;;;;;0.24;92.98145;101014.2;;;;-81
2022/01/09 22:54:47;;;;;;;;;;;;;;;0.2;92.93945;101015;;;;-82
2022/01/09 22:59:49;;;;;;;;;;;;;;;0.17;92.93555;101020.6;;;;-82
2022/01/09 23:04:47;;;;;;;;;;;;;;;0.16;92.87793;101031.1;;;;-82
2022/01/09 23:05:17;;;;;;;7.9;2.3;;;;;;;;;;;;;-82
2022/01/09 23:09:47;;;;;;;;;;;;;;;0.15;92.87402;101047.7;;;;-82
2022/01/09 23:14:49;;;;;;;;;;;;;;;0.12;92.83789;101051.9;;;;-85
2022/01/09 23:19:47;;;;;;;;;;;;;;;0.1;92.84473;101061.5;;;;-84
2022/01/09 23:24:47;;;;;;;;;;;;;;;0.1;92.84277;101086.4;;;;-83
2022/01/09 23:29:50;;;;;;;;;;;;;;;0.08;92.8623;101090;;;;-85
2022/01/09 23:34:48;;;;;;;;;;;;;;;0.09;92.90723;101090.4;;;;-84
2022/01/09 23:35:17;;;;;;;7;2.7;;;;;;;;;;;;;-84
2022/01/09 23:39:48;;;;;;;;;;;;;;;0.1;92.92871;101089.6;;;;-86
2022/01/09 23:44:52;;;;;;;;;;;;;;;0.13;93.00293;101095.9;;;;-85
2022/01/09 23:54:47;;;;;;;;;;;;;;;0.17;92.9873;101128.4;;;;-84
2022/01/09 23:59:54;;;;;;;;;;;;;;;0.21;93.04004;101134.4;;;;-84
